Time,TemperatureF,DewpointF,PressureIn,WindDirection,WindDirectionDegrees,WindSpeedMPH,WindSpeedGustMPH,Humidity,HourlyPrecipIn,Conditions,Clouds,dailyrainin,SoftwareType,DateUTC
2013-07-15 00:11:00,77.2,76.6,30.09,ESE,112,0.0,-999.0,98,-99.99,,,0.00,Acu-Link.com,2013-07-15 05:11:00,
2013-07-15 00:27:00,77.0,76.4,30.09,SE,135,2.7,-999.0,98,-99.99,,,0.00,Acu-Link.com,2013-07-15 05:27:00,
2013-07-15 00:42:00,77.0,76.4,30.09,SSE,157,0.0,-999.0,98,-99.99,,,0.00,Acu-Link.com,2013-07-15 05:42:00,
2013-07-15 00:57:00,77.0,76.4,30.09,SE,135,0.0,-999.0,98,-99.99,,,0.00,Acu-Link.com,2013-07-15 05:57:00,
2013-07-15 01:12:00,76.6,76.0,30.09,ESE,112,0.0,-999.0,98,-99.99,,,0.00,Acu-Link.com,2013-07-15 06:12:00,
2013-07-15 01:29:00,76.8,76.2,30.09,ESE,112,0.0,-999.0,98,-99.99,,,0.00,Acu-Link.com,2013-07-15 06:29:00,
2013-07-15 01:45:00,76.8,76.2,30.09,SE,135,0.0,-999.0,98,-99.99,,,0.00,Acu-Link.com,2013-07-15 06:45:00,
2013-07-15 02:00:00,76.3,75.7,30.09,SE,135,0.0,-999.0,98,-99.99,,,0.00,Acu-Link.com,2013-07-15 07:00:00,
2013-07-15 02:15:00,76.6,76.0,30.09,SE,135,0.0,-999.0,98,-99.99,,,0.00,Acu-Link.com,2013-07-15 07:15:00,
2013-07-15 02:31:00,76.6,76.0,30.09,SE,135,0.0,-999.0,98,-99.99,,,0.00,Acu-Link.com,2013-07-15 07:31:00,
2013-07-15 02:46:00,76.5,75.9,30.09,SE,135,0.0,-999.0,98,-99.99,,,0.00,Acu-Link.com,2013-07-15 07:46:00,
2013-07-15 03:03:00,76.3,75.7,30.09,ESE,112,0.0,-999.0,98,-99.99,,,0.00,Acu-Link.com,2013-07-15 08:03:00,
2013-07-15 03:19:00,76.3,75.7,30.10,ESE,112,0.0,-999.0,98,-99.99,,,0.00,Acu-Link.com,2013-07-15 08:19:00,
2013-07-15 04:06:00,76.3,75.7,30.10,East,90,0.0,-999.0,98,-99.99,,,0.00,Acu-Link.com,2013-07-15 09:06:00,
2013-07-15 04:26:00,76.1,75.5,30.09,East,90,0.0,-999.0,98,-99.99,,,0.00,Acu-Link.com,2013-07-15 09:26:00,
2013-07-15 05:11:00,76.1,75.5,30.11,ESE,112,0.0,-999.0,98,-99.99,,,0.00,Acu-Link.com,2013-07-15 10:11:00,
2013-07-15 10:16:00,84.7,84.1,30.17,SW,225,0.0,-999.0,98,-99.99,,,0.00,Acu-Link.com,2013-07-15 15:16:00,
2013-07-15 10:44:00,85.5,84.9,30.17,SSW,202,3.2,-999.0,98,-99.99,,,0.00,Acu-Link.com,2013-07-15 15:44:00,
2013-07-15 11:04:00,86.0,85.4,30.17,ESE,112,2.2,-999.0,98,-99.99,,,0.00,Acu-Link.com,2013-07-15 16:04:00,
2013-07-15 12:09:00,88.0,87.4,30.17,SE,135,5.8,-999.0,98,-99.99,,,0.00,Acu-Link.com,2013-07-15 17:09:00,
2013-07-15 12:27:00,87.8,87.2,30.17,South,180,4.2,-999.0,98,-99.99,,,0.00,Acu-Link.com,2013-07-15 17:27:00,
2013-07-15 12:43:00,87.8,87.2,30.17,SSE,157,7.3,-999.0,98,-99.99,,,0.00,Acu-Link.com,2013-07-15 17:43:00,
2013-07-15 12:59:00,88.3,87.7,30.16,SW,225,5.3,-999.0,98,-99.99,,,0.00,Acu-Link.com,2013-07-15 17:59:00,
2013-07-15 13:19:00,88.3,87.7,30.16,SE,135,3.2,-999.0,98,-99.99,,,0.00,Acu-Link.com,2013-07-15 18:19:00,
2013-07-15 13:34:00,88.5,87.9,30.15,SE,135,2.7,-999.0,98,-99.99,,,0.00,Acu-Link.com,2013-07-15 18:34:00,
2013-07-15 13:50:00,88.9,88.3,30.15,ESE,112,5.8,-999.0,98,-99.99,,,0.00,Acu-Link.com,2013-07-15 18:50:00,
2013-07-15 14:05:00,90.3,89.7,30.16,SE,135,3.2,-999.0,98,-99.99,,,0.00,Acu-Link.com,2013-07-15 19:05:00,
2013-07-15 14:35:00,87.4,86.8,30.14,South,180,4.7,-999.0,98,-99.99,,,0.00,Acu-Link.com,2013-07-15 19:35:00,
2013-07-15 17:12:00,91.0,90.4,30.11,ESE,112,2.7,-999.0,98,-99.99,,,0.00,Acu-Link.com,2013-07-15 22:12:00,
2013-07-15 17:55:00,91.0,90.4,30.11,SSW,202,5.8,-999.0,98,-99.99,,,0.00,Acu-Link.com,2013-07-15 22:55:00,
2013-07-15 20:26:00,81.7,81.1,30.13,WSW,247,0.0,-999.0,98,-99.99,,,0.00,Acu-Link.com,2013-07-16 01:26:00,